createdAt,value
2017-09-08T00:00:15.421Z,93
2017-09-08T00:01:17.814Z,93
2017-09-08T00:02:20.212Z,93
2017-09-08T00:03:22.603Z,93
2017-09-08T00:04:25.003Z,93
2017-09-08T00:05:27.397Z,93
2017-09-08T00:06:29.796Z,93
2017-09-08T00:07:32.193Z,93
2017-09-08T00:08:34.585Z,93
2017-09-08T00:09:36.972Z,93
2017-09-08T00:10:39.373Z,93
2017-09-08T00:11:41.765Z,93
2017-09-08T00:12:44.155Z,93
2017-09-08T00:13:46.554Z,93
2017-09-08T00:14:48.944Z,93
2017-09-08T00:15:51.341Z,93
2017-09-08T00:16:53.744Z,93
2017-09-08T00:17:56.124Z,93
2017-09-08T00:18:58.860Z,93
2017-09-08T00:20:01.605Z,93
2017-09-08T00:21:03.997Z,93
2017-09-08T00:22:06.392Z,93
2017-09-08T00:23:08.780Z,93
2017-09-08T00:24:11.167Z,93
2017-09-08T00:25:13.911Z,93
2017-09-08T00:26:16.306Z,93
2017-09-08T00:27:18.700Z,93
2017-09-08T00:28:21.097Z,93
2017-09-08T00:29:23.497Z,93
2017-09-08T00:30:25.889Z,93
2017-09-08T00:31:28.289Z,93
2017-09-08T00:32:30.676Z,93
2017-09-08T00:33:33.066Z,93
2017-09-08T00:34:35.466Z,93
2017-09-08T00:35:37.861Z,93
2017-09-08T00:36:40.242Z,93
2017-09-08T00:37:42.637Z,93
2017-09-08T00:38:45.028Z,93
2017-09-08T00:39:47.432Z,93
2017-09-08T00:40:49.833Z,93
2017-09-08T00:41:52.221Z,93
2017-09-08T00:42:54.612Z,93
2017-09-08T00:43:57.010Z,93
2017-09-08T00:44:59.405Z,93
2017-09-08T00:46:01.802Z,93
2017-09-08T00:47:04.200Z,93
2017-09-08T00:48:06.596Z,93
2017-09-08T00:49:08.990Z,93
2017-09-08T00:50:11.392Z,93
2017-09-08T00:51:13.776Z,93
2017-09-08T00:52:16.167Z,93
2017-09-08T00:53:18.567Z,93
2017-09-08T00:54:20.962Z,93
2017-09-08T00:55:23.352Z,93
2017-09-08T00:56:25.748Z,93
2017-09-08T00:57:28.145Z,93
2017-09-08T00:58:30.531Z,93
2017-09-08T00:59:32.932Z,93
2017-09-08T01:00:35.334Z,93
2017-09-08T01:01:37.721Z,93
2017-09-08T01:02:40.120Z,93
2017-09-08T01:03:42.516Z,93
2017-09-08T01:04:45.605Z,93
2017-09-08T01:05:48.037Z,93
2017-09-08T01:06:50.396Z,93
2017-09-08T01:07:52.779Z,93
2017-09-08T01:08:55.180Z,93
2017-09-08T01:09:57.575Z,93
2017-09-08T01:10:59.967Z,93
2017-09-08T01:12:02.360Z,93
2017-09-08T01:13:04.744Z,93
2017-09-08T01:14:07.139Z,93
2017-09-08T01:15:09.889Z,93
2017-09-08T01:16:12.272Z,93
2017-09-08T01:17:14.666Z,93
2017-09-08T01:18:17.065Z,93
2017-09-08T01:19:19.462Z,93
2017-09-08T01:20:21.858Z,93
2017-09-08T01:21:24.252Z,93
2017-09-08T01:22:26.976Z,93
2017-09-08T01:23:29.702Z,93
2017-09-08T01:24:32.105Z,93
2017-09-08T01:25:34.840Z,93
2017-09-08T01:26:37.231Z,92
2017-09-08T01:27:39.632Z,92
2017-09-08T01:28:42.032Z,92
2017-09-08T01:29:44.418Z,92
2017-09-08T01:30:46.811Z,92
2017-09-08T01:31:49.195Z,92
2017-09-08T01:32:51.588Z,92
2017-09-08T01:33:53.992Z,92
2017-09-08T01:34:56.379Z,92
2017-09-08T01:35:58.769Z,92
2017-09-08T01:37:01.161Z,92
2017-09-08T01:38:03.558Z,92
2017-09-08T01:39:05.966Z,92
2017-09-08T01:40:08.357Z,92
2017-09-08T01:41:11.084Z,92
2017-09-08T01:42:13.486Z,92
2017-09-08T01:43:15.881Z,92
2017-09-08T01:44:18.277Z,92
2017-09-08T01:45:20.677Z,92
2017-09-08T01:46:23.402Z,91
2017-09-08T01:47:25.806Z,91
2017-09-08T01:48:28.542Z,91
2017-09-08T01:49:30.933Z,91
2017-09-08T01:50:33.322Z,91
2017-09-08T01:51:35.713Z,91
2017-09-08T01:52:38.107Z,91
2017-09-08T01:53:40.500Z,91
2017-09-08T01:54:42.895Z,91
2017-09-08T01:55:45.290Z,91
2017-09-08T01:56:47.677Z,91
2017-09-08T01:57:50.074Z,91
2017-09-08T01:58:52.793Z,91
2017-09-08T01:59:55.187Z,91
2017-09-08T02:00:57.576Z,91
2017-09-08T02:01:59.973Z,91
2017-09-08T02:03:02.709Z,91
2017-09-08T02:04:05.106Z,91
2017-09-08T02:05:07.498Z,91
2017-09-08T02:06:09.892Z,91
2017-09-08T02:07:12.280Z,91
2017-09-08T02:08:14.676Z,91
2017-09-08T02:09:17.067Z,91
2017-09-08T02:10:19.468Z,91
2017-09-08T02:11:21.889Z,91
2017-09-08T02:12:24.612Z,91
2017-09-08T02:13:27.005Z,91
2017-09-08T02:14:29.399Z,91
2017-09-08T02:15:31.793Z,91
2017-09-08T02:16:34.192Z,91
2017-09-08T02:17:36.581Z,91
2017-09-08T02:18:38.976Z,91
2017-09-08T02:19:41.366Z,91
2017-09-08T02:20:43.758Z,91
2017-09-08T02:21:46.516Z,91
2017-09-08T02:22:48.916Z,91
2017-09-08T02:23:51.314Z,91
2017-09-08T02:24:53.699Z,91
2017-09-08T02:25:56.096Z,91
2017-09-08T02:26:58.527Z,91
2017-09-08T02:28:00.881Z,91
2017-09-08T02:29:03.279Z,91
2017-09-08T02:30:05.667Z,91
2017-09-08T02:31:08.058Z,91
2017-09-08T02:32:10.461Z,91
2017-09-08T02:33:12.850Z,91
2017-09-08T02:34:15.252Z,91
2017-09-08T02:35:17.653Z,91
2017-09-08T02:36:20.046Z,91
2017-09-08T02:37:22.430Z,91
2017-09-08T02:38:24.828Z,91
2017-09-08T02:39:27.216Z,91
2017-09-08T02:40:29.615Z,91
2017-09-08T02:41:32.013Z,91
2017-09-08T02:42:34.407Z,91
2017-09-08T02:43:36.801Z,91
2017-09-08T02:44:39.192Z,91
2017-09-08T02:45:41.585Z,91
2017-09-08T02:46:43.975Z,90
2017-09-08T02:47:46.366Z,90
2017-09-08T02:48:48.761Z,90
2017-09-08T02:49:51.156Z,90
2017-09-08T02:50:53.554Z,91
2017-09-08T02:51:55.957Z,90
2017-09-08T02:52:58.350Z,91
2017-09-08T02:54:00.742Z,90
2017-09-08T02:55:03.139Z,90
2017-09-08T02:56:05.530Z,90
2017-09-08T02:57:07.935Z,90
2017-09-08T02:58:10.327Z,90
2017-09-08T02:59:12.716Z,90
2017-09-08T03:00:15.110Z,90
2017-09-08T03:01:17.506Z,90
2017-09-08T03:02:19.900Z,90
2017-09-08T03:03:22.292Z,90
2017-09-08T03:04:24.675Z,90
2017-09-08T03:05:27.066Z,90
2017-09-08T03:06:29.466Z,90
2017-09-08T03:07:31.862Z,90
2017-09-08T03:08:34.260Z,90
2017-09-08T03:09:36.651Z,90
2017-09-08T03:10:39.409Z,90
2017-09-08T03:11:41.808Z,90
2017-09-08T03:12:44.196Z,90
2017-09-08T03:13:46.587Z,90
2017-09-08T03:14:48.973Z,90
2017-09-08T03:15:51.365Z,90
2017-09-08T03:16:53.763Z,90
2017-09-08T03:17:56.156Z,90
2017-09-08T03:18:58.537Z,90
2017-09-08T03:20:00.937Z,90
2017-09-08T03:21:03.336Z,90
2017-09-08T03:22:05.733Z,90
2017-09-08T03:23:08.112Z,90
2017-09-08T03:24:10.507Z,90
2017-09-08T03:25:13.245Z,90
2017-09-08T03:26:15.644Z,90
2017-09-08T03:27:18.041Z,90
2017-09-08T03:28:20.439Z,90
2017-09-08T03:29:22.827Z,90
2017-09-08T03:30:25.229Z,90
2017-09-08T03:31:27.618Z,90
2017-09-08T03:32:30.007Z,90
2017-09-08T03:33:32.402Z,90
2017-09-08T03:34:34.793Z,90
2017-09-08T03:35:37.188Z,90
2017-09-08T03:36:39.590Z,90
2017-09-08T03:37:41.976Z,90
2017-09-08T03:38:44.368Z,90
2017-09-08T03:39:46.763Z,90
2017-09-08T03:40:49.153Z,90
2017-09-08T03:41:51.879Z,90
2017-09-08T03:42:54.277Z,90
2017-09-08T03:43:56.665Z,90
2017-09-08T03:44:59.064Z,90
2017-09-08T03:46:01.457Z,90
2017-09-08T03:47:03.847Z,90
2017-09-08T03:48:06.248Z,90
2017-09-08T03:49:08.643Z,90
2017-09-08T03:50:11.034Z,90
2017-09-08T03:51:13.433Z,90
2017-09-08T03:52:15.832Z,90
2017-09-08T03:53:18.226Z,90
2017-09-08T03:54:20.949Z,90
2017-09-08T03:55:23.348Z,90
2017-09-08T03:56:25.757Z,90
2017-09-08T03:57:28.141Z,90
2017-09-08T03:58:30.533Z,90
2017-09-08T03:59:32.922Z,90
2017-09-08T04:00:35.316Z,90
2017-09-08T04:01:37.715Z,90
2017-09-08T04:02:40.444Z,90
2017-09-08T04:03:42.828Z,90
2017-09-08T04:04:45.235Z,90
2017-09-08T04:05:47.623Z,90
2017-09-08T04:06:50.018Z,90
2017-09-08T04:07:52.411Z,90
2017-09-08T04:08:54.796Z,90
2017-09-08T04:09:57.189Z,90
2017-09-08T04:10:59.597Z,90
2017-09-08T04:12:01.986Z,90
2017-09-08T04:13:04.374Z,90
2017-09-08T04:14:06.772Z,90
2017-09-08T04:15:09.167Z,90
2017-09-08T04:16:11.569Z,90
2017-09-08T04:17:13.961Z,90
2017-09-08T04:18:16.341Z,90
2017-09-08T04:19:18.733Z,90
2017-09-08T04:20:21.127Z,90
2017-09-08T04:21:23.521Z,90
2017-09-08T04:22:25.914Z,90
2017-09-08T04:23:28.309Z,90
2017-09-08T04:24:30.703Z,90
2017-09-08T04:25:33.093Z,90
2017-09-08T04:26:35.488Z,90
2017-09-08T04:27:37.883Z,90
2017-09-08T04:28:40.279Z,90
2017-09-08T04:29:42.675Z,90
2017-09-08T04:30:45.066Z,90
2017-09-08T04:31:47.801Z,90
2017-09-08T04:32:50.190Z,90
2017-09-08T04:33:52.581Z,90
2017-09-08T04:34:54.968Z,90
2017-09-08T04:35:57.366Z,90
2017-09-08T04:36:59.752Z,90
2017-09-08T04:38:02.150Z,90
2017-09-08T04:39:04.547Z,90
2017-09-08T04:40:06.937Z,91
2017-09-08T04:41:09.335Z,91
2017-09-08T04:42:11.763Z,91
2017-09-08T04:43:14.117Z,91
2017-09-08T04:44:16.523Z,91
2017-09-08T04:45:18.910Z,91
2017-09-08T04:46:21.297Z,91
2017-09-08T04:47:23.698Z,91
2017-09-08T04:48:26.432Z,91
2017-09-08T04:49:29.508Z,91
2017-09-08T04:50:31.897Z,91
2017-09-08T04:51:34.302Z,91
2017-09-08T04:52:36.700Z,91
2017-09-08T04:53:39.091Z,91
2017-09-08T04:54:41.821Z,91
2017-09-08T04:55:44.213Z,91
2017-09-08T04:56:46.602Z,91
2017-09-08T04:57:49.001Z,91
2017-09-08T04:58:51.749Z,91
2017-09-08T04:59:54.141Z,92
2017-09-08T05:00:56.547Z,92
2017-09-08T05:01:58.943Z,92
2017-09-08T05:03:01.368Z,92
2017-09-08T05:04:04.080Z,92
2017-09-08T05:05:06.475Z,92
2017-09-08T05:06:08.872Z,92
2017-09-08T05:07:11.267Z,92
2017-09-08T05:08:13.655Z,92
2017-09-08T05:09:16.055Z,93
2017-09-08T05:10:18.453Z,93
2017-09-08T05:11:20.837Z,93
2017-09-08T05:12:23.567Z,93
2017-09-08T05:13:25.964Z,93
2017-09-08T05:14:28.353Z,93
2017-09-08T05:15:30.755Z,93
2017-09-08T05:16:33.487Z,93
2017-09-08T05:17:35.873Z,93
2017-09-08T05:18:38.273Z,93
2017-09-08T05:19:40.670Z,93
2017-09-08T05:20:43.068Z,93
2017-09-08T05:21:45.462Z,93
2017-09-08T05:22:47.868Z,93
2017-09-08T05:23:50.263Z,94
2017-09-08T05:24:52.641Z,94
2017-09-08T05:25:55.036Z,94
2017-09-08T05:26:57.432Z,94
2017-09-08T05:27:59.823Z,94
2017-09-08T05:29:02.216Z,94
2017-09-08T05:30:04.608Z,94
2017-09-08T05:31:07.004Z,94
2017-09-08T05:32:09.742Z,94
2017-09-08T05:33:12.141Z,94
2017-09-08T05:34:14.526Z,94
2017-09-08T05:35:16.927Z,94
2017-09-08T05:36:19.329Z,94
2017-09-08T05:37:21.722Z,94
2017-09-08T05:38:24.118Z,94
2017-09-08T05:39:26.508Z,94
2017-09-08T05:40:28.902Z,94
2017-09-08T05:41:31.301Z,94
2017-09-08T05:42:33.685Z,94
2017-09-08T05:43:36.079Z,94
2017-09-08T05:44:38.483Z,94
2017-09-08T05:45:41.211Z,94
2017-09-08T05:46:43.603Z,94
2017-09-08T05:47:46.013Z,94
2017-09-08T05:48:48.402Z,94
2017-09-08T05:49:50.795Z,94
2017-09-08T05:50:53.189Z,94
2017-09-08T05:51:55.586Z,94
2017-09-08T05:52:58.324Z,95
2017-09-08T05:54:00.714Z,94
2017-09-08T05:55:03.107Z,94
2017-09-08T05:56:05.493Z,95
2017-09-08T05:57:07.896Z,95
2017-09-08T05:58:10.286Z,95
2017-09-08T05:59:12.683Z,95
2017-09-08T06:00:15.077Z,95
2017-09-08T06:01:17.476Z,95
2017-09-08T06:02:19.869Z,95
2017-09-08T06:03:22.265Z,95
2017-09-08T06:04:24.990Z,95
2017-09-08T06:05:27.379Z,95
2017-09-08T06:06:30.117Z,95
2017-09-08T06:07:32.515Z,95
2017-09-08T06:08:34.899Z,95
2017-09-08T06:09:37.299Z,95
2017-09-08T06:10:39.695Z,95
2017-09-08T06:11:42.083Z,95
2017-09-08T06:12:44.485Z,95
2017-09-08T06:13:46.881Z,95
2017-09-08T06:14:49.270Z,95
2017-09-08T06:15:51.669Z,95
2017-09-08T06:16:54.052Z,95
2017-09-08T06:17:56.445Z,95
2017-09-08T06:18:58.843Z,95
2017-09-08T06:20:01.236Z,95
2017-09-08T06:21:03.636Z,95
2017-09-08T06:22:06.017Z,95
2017-09-08T06:23:08.406Z,95
2017-09-08T06:24:10.805Z,95
2017-09-08T06:25:13.195Z,95
2017-09-08T06:26:15.584Z,95
2017-09-08T06:27:17.981Z,96
2017-09-08T06:28:20.375Z,96
2017-09-08T06:29:22.779Z,96
2017-09-08T06:30:25.175Z,96
2017-09-08T06:31:27.562Z,96
2017-09-08T06:32:29.959Z,96
2017-09-08T06:33:32.692Z,96
2017-09-08T06:34:35.085Z,96
2017-09-08T06:35:37.481Z,96
2017-09-08T06:36:39.879Z,97
2017-09-08T06:37:42.271Z,97
2017-09-08T06:38:44.682Z,97
2017-09-08T06:39:47.055Z,97
2017-09-08T06:40:49.447Z,97
2017-09-08T06:41:51.848Z,97
2017-09-08T06:42:54.237Z,97
2017-09-08T06:43:56.629Z,97
2017-09-08T06:44:59.026Z,97
2017-09-08T06:46:01.414Z,97
2017-09-08T06:47:03.807Z,97
2017-09-08T06:48:06.202Z,97
2017-09-08T06:49:08.602Z,97
2017-09-08T06:50:10.990Z,97
2017-09-08T06:51:13.381Z,97
2017-09-08T06:52:15.775Z,97
2017-09-08T06:53:18.170Z,97
2017-09-08T06:54:20.897Z,97
2017-09-08T06:55:23.299Z,97
2017-09-08T06:56:25.688Z,97
2017-09-08T06:57:28.086Z,97
2017-09-08T06:58:30.479Z,97
2017-09-08T06:59:32.877Z,97
2017-09-08T07:00:35.268Z,97
2017-09-08T07:01:37.662Z,97
2017-09-08T07:02:40.044Z,97
2017-09-08T07:03:42.446Z,97
2017-09-08T07:04:44.832Z,97
2017-09-08T07:05:47.223Z,97
2017-09-08T07:06:49.626Z,97
2017-09-08T07:07:52.020Z,97
2017-09-08T07:08:54.413Z,97
2017-09-08T07:09:56.809Z,97
2017-09-08T07:10:59.203Z,97
2017-09-08T07:12:01.598Z,97
2017-09-08T07:13:03.990Z,97
2017-09-08T07:14:06.376Z,97
2017-09-08T07:15:08.770Z,97
2017-09-08T07:16:11.162Z,97
2017-09-08T07:17:13.557Z,97
2017-09-08T07:18:16.287Z,97
2017-09-08T07:19:18.687Z,97
2017-09-08T07:20:21.072Z,97
2017-09-08T07:21:23.468Z,97
2017-09-08T07:22:25.862Z,97
2017-09-08T07:23:28.259Z,96
2017-09-08T07:24:30.660Z,96
2017-09-08T07:25:33.057Z,96
2017-09-08T07:26:35.449Z,96
2017-09-08T07:27:37.851Z,96
2017-09-08T07:28:40.245Z,96
2017-09-08T07:29:42.647Z,96
2017-09-08T07:30:45.032Z,96
2017-09-08T07:31:47.426Z,96
2017-09-08T07:32:49.819Z,96
2017-09-08T07:33:52.211Z,96
2017-09-08T07:34:54.598Z,96
2017-09-08T07:35:56.998Z,96
2017-09-08T07:36:59.391Z,96
2017-09-08T07:38:01.794Z,96
2017-09-08T07:39:04.526Z,96
2017-09-08T07:40:06.911Z,96
2017-09-08T07:41:09.320Z,96
2017-09-08T07:42:11.699Z,96
2017-09-08T07:43:14.097Z,96
2017-09-08T07:44:16.484Z,96
2017-09-08T07:45:18.877Z,96
2017-09-08T07:46:21.270Z,96
2017-09-08T07:47:23.672Z,96
2017-09-08T07:48:26.064Z,96
2017-09-08T07:49:28.453Z,96
2017-09-08T07:50:30.853Z,96
2017-09-08T07:51:33.254Z,96
2017-09-08T07:52:35.640Z,96
2017-09-08T07:53:38.037Z,96
2017-09-08T07:54:40.437Z,96
2017-09-08T07:55:42.827Z,96
2017-09-08T07:56:45.221Z,96
2017-09-08T07:57:47.618Z,96
2017-09-08T07:58:50.346Z,96
2017-09-08T07:59:53.088Z,96
2017-09-08T08:00:55.816Z,96
2017-09-08T08:01:58.198Z,96
2017-09-08T08:03:00.601Z,96
2017-09-08T08:04:03.329Z,96
2017-09-08T08:05:05.725Z,96
2017-09-08T08:06:08.131Z,96
2017-09-08T08:07:10.524Z,96
2017-09-08T08:08:12.913Z,96
2017-09-08T08:09:15.303Z,96
2017-09-08T08:10:18.057Z,96
2017-09-08T08:11:20.431Z,96
2017-09-08T08:12:22.829Z,96
2017-09-08T08:13:25.215Z,96
2017-09-08T08:14:27.608Z,96
2017-09-08T08:15:30.004Z,96
2017-09-08T08:16:32.398Z,96
2017-09-08T08:17:34.795Z,96
2017-09-08T08:18:37.201Z,96
2017-09-08T08:19:39.931Z,96
2017-09-08T08:20:42.322Z,96
2017-09-08T08:21:45.065Z,96
2017-09-08T08:22:47.458Z,96
2017-09-08T08:23:49.858Z,96
2017-09-08T08:24:52.255Z,96
2017-09-08T08:25:54.640Z,96
2017-09-08T08:26:57.037Z,96
2017-09-08T08:27:59.440Z,96
2017-09-08T08:29:02.170Z,96
2017-09-08T08:30:04.559Z,96
2017-09-08T08:31:06.951Z,96
2017-09-08T08:32:09.343Z,97
2017-09-08T08:33:12.080Z,96
2017-09-08T08:34:14.472Z,96
2017-09-08T08:35:16.867Z,96
2017-09-08T08:36:19.265Z,96
2017-09-08T08:37:21.665Z,96
2017-09-08T08:38:24.060Z,96
2017-09-08T08:39:26.460Z,97
2017-09-08T08:40:28.850Z,97
2017-09-08T08:41:31.244Z,97
2017-09-08T08:42:33.633Z,97
2017-09-08T08:43:36.024Z,97
2017-09-08T08:44:38.749Z,97
2017-09-08T08:45:41.146Z,97
2017-09-08T08:46:43.539Z,97
2017-09-08T08:47:46.273Z,97
2017-09-08T08:48:48.667Z,97
2017-09-08T08:49:51.067Z,96
2017-09-08T08:50:53.456Z,96
2017-09-08T08:51:55.849Z,96
2017-09-08T08:52:58.245Z,96
2017-09-08T08:54:00.977Z,96
2017-09-08T08:55:03.361Z,96
2017-09-08T08:56:05.756Z,97
2017-09-08T08:57:08.146Z,97
2017-09-08T08:58:10.541Z,97
2017-09-08T08:59:12.930Z,96
2017-09-08T09:00:15.323Z,96
2017-09-08T09:01:17.719Z,96
2017-09-08T09:02:20.121Z,96
2017-09-08T09:03:22.507Z,96
2017-09-08T09:04:24.901Z,96
2017-09-08T09:05:27.296Z,97
2017-09-08T09:06:29.687Z,97
2017-09-08T09:07:32.082Z,97
2017-09-08T09:08:34.473Z,97
2017-09-08T09:09:36.859Z,96
2017-09-08T09:10:39.263Z,96
2017-09-08T09:11:41.656Z,96
2017-09-08T09:12:44.042Z,97
2017-09-08T09:13:46.439Z,96
2017-09-08T09:14:48.833Z,97
2017-09-08T09:15:51.231Z,97
2017-09-08T09:16:53.954Z,97
2017-09-08T09:17:56.364Z,97
2017-09-08T09:18:58.759Z,97
2017-09-08T09:20:01.154Z,97
2017-09-08T09:21:03.554Z,97
2017-09-08T09:22:05.945Z,97
2017-09-08T09:23:08.338Z,97
2017-09-08T09:24:10.740Z,97
2017-09-08T09:25:13.129Z,97
2017-09-08T09:26:15.522Z,97
2017-09-08T09:27:17.922Z,97
2017-09-08T09:28:20.325Z,97
2017-09-08T09:29:22.705Z,97
2017-09-08T09:30:25.103Z,98
2017-09-08T09:31:27.498Z,98
2017-09-08T09:32:30.232Z,98
2017-09-08T09:33:32.635Z,98
2017-09-08T09:34:35.021Z,98
2017-09-08T09:35:37.412Z,98
2017-09-08T09:36:40.158Z,98
2017-09-08T09:37:42.545Z,98
2017-09-08T09:38:44.935Z,98
2017-09-08T09:39:47.333Z,98
2017-09-08T09:40:49.722Z,98
2017-09-08T09:41:52.462Z,98
2017-09-08T09:42:54.864Z,98
2017-09-08T09:43:57.243Z,98
2017-09-08T09:44:59.644Z,98
2017-09-08T09:46:02.386Z,98
2017-09-08T09:47:04.784Z,98
2017-09-08T09:48:07.178Z,98
2017-09-08T09:49:09.575Z,98
2017-09-08T09:50:11.968Z,98
2017-09-08T09:51:14.696Z,98
2017-09-08T09:52:17.089Z,98
2017-09-08T09:53:19.488Z,98
2017-09-08T09:54:21.877Z,98
2017-09-08T09:55:24.269Z,98
2017-09-08T09:56:26.667Z,98
2017-09-08T09:57:29.062Z,98
2017-09-08T09:58:31.464Z,98
2017-09-08T09:59:33.861Z,98
2017-09-08T10:00:36.247Z,97
2017-09-08T10:01:38.645Z,97
2017-09-08T10:02:41.407Z,97
2017-09-08T10:03:43.797Z,98
2017-09-08T10:04:46.187Z,98
2017-09-08T10:05:48.915Z,98
2017-09-08T10:06:51.306Z,98
2017-09-08T10:07:53.708Z,98
2017-09-08T10:08:56.089Z,98
2017-09-08T10:09:58.488Z,98
2017-09-08T10:11:00.883Z,98
2017-09-08T10:12:03.277Z,98
2017-09-08T10:13:06.006Z,98
2017-09-08T10:14:08.404Z,98
2017-09-08T10:15:10.797Z,98
2017-09-08T10:16:13.200Z,98
2017-09-08T10:17:15.587Z,98
2017-09-08T10:18:17.981Z,98
2017-09-08T10:19:20.378Z,98
2017-09-08T10:20:22.770Z,98
2017-09-08T10:21:25.156Z,98
2017-09-08T10:22:27.553Z,98
2017-09-08T10:23:29.935Z,98
2017-09-08T10:24:32.341Z,98
2017-09-08T10:25:34.734Z,98
2017-09-08T10:26:37.126Z,98
2017-09-08T10:27:39.527Z,98
2017-09-08T10:28:41.922Z,98
2017-09-08T10:29:44.313Z,98
2017-09-08T10:30:46.709Z,98
2017-09-08T10:31:49.096Z,98
2017-09-08T10:32:51.494Z,98
2017-09-08T10:33:53.902Z,98
2017-09-08T10:34:56.291Z,98
2017-09-08T10:35:58.680Z,98
2017-09-08T10:37:01.074Z,98
2017-09-08T10:38:03.464Z,98
2017-09-08T10:39:05.863Z,98
2017-09-08T10:40:08.256Z,98
2017-09-08T10:41:10.645Z,98
2017-09-08T10:42:13.044Z,98
2017-09-08T10:43:15.439Z,98
2017-09-08T10:44:17.834Z,98
2017-09-08T10:45:20.229Z,98
2017-09-08T10:46:22.625Z,98
2017-09-08T10:47:25.019Z,98
2017-09-08T10:48:27.406Z,98
2017-09-08T10:49:29.802Z,98
2017-09-08T10:50:32.203Z,98
2017-09-08T10:51:34.593Z,98
2017-09-08T10:52:37.324Z,98
2017-09-08T10:53:39.724Z,98
2017-09-08T10:54:42.120Z,98
2017-09-08T10:55:44.523Z,98
2017-09-08T10:56:46.918Z,98
2017-09-08T10:57:49.305Z,98
2017-09-08T10:58:51.702Z,98
2017-09-08T10:59:54.096Z,98
2017-09-08T11:00:56.492Z,98
2017-09-08T11:01:58.884Z,98
2017-09-08T11:03:01.285Z,98
2017-09-08T11:04:03.676Z,98
2017-09-08T11:05:06.077Z,98
2017-09-08T11:06:08.476Z,98
2017-09-08T11:07:10.869Z,98
2017-09-08T11:08:13.274Z,98
2017-09-08T11:09:15.663Z,98
2017-09-08T11:10:18.060Z,98
2017-09-08T11:11:20.463Z,98
2017-09-08T11:12:22.852Z,98
2017-09-08T11:13:25.581Z,98
2017-09-08T11:14:27.978Z,98
2017-09-08T11:15:30.377Z,98
2017-09-08T11:16:32.768Z,98
2017-09-08T11:17:35.493Z,98
2017-09-08T11:18:37.886Z,98
2017-09-08T11:19:40.282Z,98
2017-09-08T11:20:42.675Z,98
2017-09-08T11:21:45.078Z,98
2017-09-08T11:22:47.473Z,98
2017-09-08T11:23:49.861Z,98
2017-09-08T11:24:52.263Z,98
2017-09-08T11:25:54.658Z,98
2017-09-08T11:26:57.050Z,98
2017-09-08T11:27:59.446Z,98
2017-09-08T11:29:01.833Z,97
2017-09-08T11:30:04.575Z,97
2017-09-08T11:31:06.975Z,97
2017-09-08T11:32:09.364Z,97
2017-09-08T11:33:11.763Z,97
2017-09-08T11:34:14.156Z,97
2017-09-08T11:35:16.886Z,97
2017-09-08T11:36:19.620Z,97
2017-09-08T11:37:22.017Z,97
2017-09-08T11:38:24.413Z,98
2017-09-08T11:39:27.150Z,98
2017-09-08T11:40:29.542Z,98
2017-09-08T11:41:31.934Z,98
2017-09-08T11:42:34.334Z,98
2017-09-08T11:43:36.729Z,98
2017-09-08T11:44:39.126Z,98
2017-09-08T11:45:41.580Z,98
2017-09-08T11:46:43.967Z,98
2017-09-08T11:47:46.707Z,98
2017-09-08T11:48:49.103Z,98
2017-09-08T11:49:51.501Z,98
2017-09-08T11:50:53.928Z,98
2017-09-08T11:51:56.347Z,98
2017-09-08T11:52:58.731Z,98
2017-09-08T11:54:01.134Z,98
2017-09-08T11:55:03.529Z,98
2017-09-08T11:56:05.928Z,98
2017-09-08T11:57:08.313Z,98
2017-09-08T11:58:10.708Z,98
2017-09-08T11:59:13.463Z,98
2017-09-08T12:00:15.865Z,98
2017-09-08T12:01:18.263Z,98
2017-09-08T12:02:20.660Z,98
2017-09-08T12:03:23.056Z,98
2017-09-08T12:04:25.457Z,99
2017-09-08T12:05:27.852Z,99
2017-09-08T12:06:30.241Z,99
2017-09-08T12:07:32.639Z,98
2017-09-08T12:08:35.026Z,98
2017-09-08T12:09:37.422Z,99
2017-09-08T12:10:39.815Z,99
2017-09-08T12:11:42.210Z,99
2017-09-08T12:12:44.940Z,98
2017-09-08T12:13:47.341Z,99
2017-09-08T12:14:49.737Z,99
2017-09-08T12:15:52.135Z,99
2017-09-08T12:16:54.531Z,98
2017-09-08T12:17:56.929Z,98
2017-09-08T12:18:59.316Z,98
2017-09-08T12:20:01.705Z,98
2017-09-08T12:21:04.471Z,98
2017-09-08T12:22:06.859Z,99
2017-09-08T12:23:09.262Z,99
2017-09-08T12:24:12.014Z,99
2017-09-08T12:25:14.402Z,99
2017-09-08T12:26:16.789Z,99
2017-09-08T12:27:19.190Z,99
2017-09-08T12:28:21.577Z,99
2017-09-08T12:29:23.977Z,99
2017-09-08T12:30:26.376Z,99
2017-09-08T12:31:28.798Z,98
2017-09-08T12:32:31.165Z,98
2017-09-08T12:33:33.565Z,98
2017-09-08T12:34:35.957Z,98
2017-09-08T12:35:38.357Z,98
2017-09-08T12:36:40.751Z,98
2017-09-08T12:37:43.480Z,98
2017-09-08T12:38:45.869Z,98
2017-09-08T12:39:48.265Z,98
2017-09-08T12:40:50.655Z,99
2017-09-08T12:41:53.052Z,99
2017-09-08T12:42:55.446Z,99
2017-09-08T12:43:57.847Z,99
2017-09-08T12:45:00.238Z,99
2017-09-08T12:46:02.630Z,99
2017-09-08T12:47:05.031Z,99
2017-09-08T12:48:07.415Z,99
2017-09-08T12:49:09.816Z,99
2017-09-08T12:50:12.214Z,99
2017-09-08T12:51:14.604Z,99
2017-09-08T12:52:17.003Z,99
2017-09-08T12:53:19.747Z,99
2017-09-08T12:54:22.134Z,99
2017-09-08T12:55:24.539Z,99
2017-09-08T12:56:26.929Z,99
2017-09-08T12:57:29.691Z,99
2017-09-08T12:58:32.097Z,99
2017-09-08T12:59:34.491Z,99
2017-09-08T13:00:36.883Z,99
2017-09-08T13:01:39.278Z,99
2017-09-08T13:02:41.676Z,99
2017-09-08T13:03:44.077Z,99
2017-09-08T13:04:46.505Z,99
2017-09-08T13:05:48.872Z,99
2017-09-08T13:06:51.265Z,99
2017-09-08T13:07:53.656Z,99
2017-09-08T13:08:56.045Z,99
2017-09-08T13:09:58.443Z,99
2017-09-08T13:11:00.834Z,99
2017-09-08T13:12:03.580Z,99
2017-09-08T13:13:05.983Z,99
2017-09-08T13:14:08.376Z,99
2017-09-08T13:15:10.768Z,99
2017-09-08T13:16:13.159Z,99
2017-09-08T13:17:15.548Z,98
2017-09-08T13:18:17.941Z,98
2017-09-08T13:19:20.336Z,98
2017-09-08T13:20:22.739Z,98
2017-09-08T13:21:25.133Z,98
2017-09-08T13:22:27.536Z,98
2017-09-08T13:23:29.931Z,99
2017-09-08T13:24:32.322Z,99
2017-09-08T13:25:34.713Z,99
2017-09-08T13:26:37.108Z,99
2017-09-08T13:27:39.493Z,99
2017-09-08T13:28:41.899Z,99
2017-09-08T13:29:44.295Z,99
2017-09-08T13:30:46.689Z,99
2017-09-08T13:31:49.085Z,99
2017-09-08T13:32:51.475Z,99
2017-09-08T13:33:53.871Z,99
2017-09-08T13:34:56.278Z,99
2017-09-08T13:35:58.667Z,99
2017-09-08T13:37:01.075Z,99
2017-09-08T13:38:03.470Z,99
2017-09-08T13:39:05.865Z,99
2017-09-08T13:40:08.263Z,99
2017-09-08T13:41:10.663Z,99
2017-09-08T13:42:13.049Z,99
2017-09-08T13:43:15.445Z,99
2017-09-08T13:44:17.849Z,99
2017-09-08T13:45:20.240Z,99
2017-09-08T13:46:22.629Z,99
2017-09-08T13:47:25.031Z,99
2017-09-08T13:48:27.442Z,99
2017-09-08T13:49:29.834Z,99
2017-09-08T13:50:32.232Z,99
2017-09-08T13:51:34.621Z,99
2017-09-08T13:52:37.019Z,99
2017-09-08T13:53:39.425Z,99
2017-09-08T13:54:41.815Z,99
2017-09-08T13:55:44.207Z,99
2017-09-08T13:56:46.606Z,99
2017-09-08T13:57:48.989Z,99
2017-09-08T13:58:51.385Z,99
2017-09-08T13:59:53.777Z,99
2017-09-08T14:00:56.164Z,99
2017-09-08T14:01:58.563Z,99
2017-09-08T14:03:00.958Z,99
2017-09-08T14:04:03.350Z,99
2017-09-08T14:05:05.762Z,99
2017-09-08T14:06:08.150Z,99
2017-09-08T14:07:10.547Z,99
2017-09-08T14:08:13.293Z,99
2017-09-08T14:09:15.699Z,99
2017-09-08T14:10:18.085Z,99
2017-09-08T14:11:20.481Z,99
2017-09-08T14:12:22.884Z,99
2017-09-08T14:13:25.276Z,99
2017-09-08T14:14:27.668Z,99
2017-09-08T14:15:30.070Z,99
2017-09-08T14:16:32.463Z,99
2017-09-08T14:17:34.869Z,99
2017-09-08T14:18:37.263Z,99
2017-09-08T14:19:39.652Z,99
2017-09-08T14:20:42.052Z,99
2017-09-08T14:21:44.445Z,99
2017-09-08T14:22:47.184Z,99
2017-09-08T14:23:49.573Z,100
2017-09-08T14:24:51.971Z,100
2017-09-08T14:25:54.371Z,100
2017-09-08T14:26:56.772Z,100
2017-09-08T14:27:59.166Z,100
2017-09-08T14:29:01.570Z,100
2017-09-08T14:30:03.956Z,100
2017-09-08T14:31:06.349Z,100
2017-09-08T14:32:08.753Z,100
2017-09-08T14:33:11.156Z,100
2017-09-08T14:34:13.547Z,100
2017-09-08T14:35:15.951Z,100
2017-09-08T14:36:18.349Z,100
2017-09-08T14:37:20.749Z,100
2017-09-08T14:38:23.181Z,100
2017-09-08T14:39:25.542Z,100
2017-09-08T14:40:27.939Z,100
2017-09-08T14:41:30.345Z,100
2017-09-08T14:42:32.736Z,100
2017-09-08T14:43:35.129Z,100
2017-09-08T14:44:37.533Z,100
2017-09-08T14:45:40.284Z,100
2017-09-08T14:46:42.686Z,100
2017-09-08T14:47:45.086Z,100
2017-09-08T14:48:47.479Z,100